Terminal Aerodrome Forecast
Issued by NWS

Home | Current Version | Previous Version | Text Only | Print | Product List | Glossary On
Versions: 1 2 3 4 5 6 7 8 9 10 11 12 13 14 15 16 17 18 19
415
FTUS43 KTOP 260751 AAA
TAFFOE
TAF AMD
KFOE 260751Z 2608/2706 24005KT P6SM SHRA VCTS SCT025 BKN050CB
     FM260900 34005KT P6SM BKN018
     FM261200 14005KT P6SM SCT025 BKN030
     FM261800 16010G19KT P6SM BKN050
     FM270000 17011G19KT P6SM VCTS BKN050CB=

USA.gov is the U.S. government's official web portal to all federal, state and local government web resources and services.